Time;durP1;ratioP1;P1;durP2;ratioP2;P2;SDS_P1;SDS_P2;PMS_P1;PMS_P2;Temp;Humidity;BMP_temperature;BMP_pressure;BME280_temperature;BME280_humidity;BME280_pressure;Samples;Min_cycle;Max_cycle;Signal;HPM_P1;HPM_P2
2023/10/03 00:01:48;;;;;;;14.60;8.95;;;;;;;15.80;57.55;95560.16;4153291;28;20186;-68
2023/10/03 00:03:52;;;;;;;13.68;8.23;;;;;;;15.81;57.58;95558.34;4170530;28;20622;-69
2023/10/03 00:05:55;;;;;;;15.63;8.60;;;;;;;15.79;57.78;95558.53;4161614;28;20085;-69
2023/10/03 00:08:01;;;;;;;17.77;7.63;;;;;;;15.76;57.85;95553.56;4148834;28;20057;-69
2023/10/03 00:10:03;;;;;;;13.30;8.60;;;;;;;15.79;57.74;95560.34;4162593;28;20049;-68
2023/10/03 00:12:05;;;;;;;14.20;9.27;;;;;;;15.58;58.36;95556.41;4158675;28;20525;-68
2023/10/03 00:14:07;;;;;;;12.70;8.75;;;;;;;15.07;59.62;95564.56;4163925;28;20048;-68
2023/10/03 00:16:09;;;;;;;21.02;9.02;;;;;;;14.92;60.45;95560.94;4170388;28;20124;-68
2023/10/03 00:18:14;;;;;;;16.55;9.27;;;;;;;14.88;60.63;95565.69;4156444;28;20049;-66
2023/10/03 00:20:18;;;;;;;16.33;8.52;;;;;;;14.91;60.42;95562.75;4160198;28;20507;-68
2023/10/03 00:22:20;;;;;;;14.45;8.95;;;;;;;15.04;60.32;95561.44;4152304;28;20046;-69
2023/10/03 00:24:21;;;;;;;14.80;9.65;;;;;;;15.14;60.28;95564.72;4160770;28;20512;-67
2023/10/03 00:26:23;;;;;;;15.07;9.05;;;;;;;15.22;59.69;95561.25;4159763;28;20059;-68
2023/10/03 00:28:29;;;;;;;18.17;9.35;;;;;;;15.28;59.50;95555.31;4155147;28;20361;-68
2023/10/03 00:30:31;;;;;;;14.68;9.23;;;;;;;15.34;59.27;95560.75;4152214;28;20057;-68
2023/10/03 00:32:33;;;;;;;17.60;9.07;;;;;;;15.42;59.12;95554.63;4170368;28;20048;-68
2023/10/03 00:34:36;;;;;;;14.18;8.43;;;;;;;15.46;58.85;95552.47;4171167;28;20471;-68
2023/10/03 00:36:38;;;;;;;19.30;9.68;;;;;;;15.45;59.02;95550.84;4161675;28;20095;-67
2023/10/03 00:38:40;;;;;;;13.05;8.77;;;;;;;15.43;59.18;95547.53;4161476;28;20050;-69
2023/10/03 00:40:48;;;;;;;11.23;8.98;;;;;;;15.42;59.18;95556.44;4158857;28;20281;-69
2023/10/03 00:43:01;;;;;;;17.95;9.73;;;;;;;15.41;59.02;95552.97;4158329;28;20049;-67
2023/10/03 00:45:03;;;;;;;13.95;9.90;;;;;;;15.45;59.25;95551.66;4156479;28;20476;-68
2023/10/03 00:47:08;;;;;;;16.05;9.80;;;;;;;15.43;59.28;95544.91;4172381;28;20393;-69
2023/10/03 00:49:14;;;;;;;14.25;9.27;;;;;;;15.42;58.92;95549.34;4160049;28;20489;-67
2023/10/03 00:51:20;;;;;;;17.27;9.93;;;;;;;15.44;58.91;95555.28;4172808;28;20049;-67
2023/10/03 00:53:22;;;;;;;16.08;10.43;;;;;;;15.41;59.08;95555.63;4153809;28;20077;-68
2023/10/03 00:55:28;;;;;;;14.27;9.98;;;;;;;15.42;59.38;95557.25;4168200;28;20045;-69
2023/10/03 00:57:32;;;;;;;16.13;9.95;;;;;;;15.30;59.46;95556.78;4161396;28;20523;-68
2023/10/03 00:59:34;;;;;;;19.05;10.80;;;;;;;15.15;59.87;95556.63;4173100;28;20095;-68
2023/10/03 01:01:36;;;;;;;15.90;10.48;;;;;;;15.06;59.97;95555.00;4166248;28;20041;-67
2023/10/03 01:03:38;;;;;;;19.50;11.43;;;;;;;15.06;60.06;95562.91;4165389;28;20052;-69
2023/10/03 01:05:41;;;;;;;14.00;10.80;;;;;;;15.07;60.29;95561.09;4160836;28;20057;-69
2023/10/03 01:07:45;;;;;;;16.15;10.40;;;;;;;15.09;60.15;95559.94;4155785;28;20081;-67
2023/10/03 01:09:47;;;;;;;16.63;10.55;;;;;;;15.18;59.92;95559.94;4159620;28;20061;-71
2023/10/03 01:11:52;;;;;;;14.00;9.30;;;;;;;15.20;59.60;95552.69;4157224;28;20573;-67
2023/10/03 01:13:56;;;;;;;14.02;9.15;;;;;;;15.19;59.70;95561.59;4161063;28;20573;-70
2023/10/03 01:15:58;;;;;;;23.65;9.73;;;;;;;15.20;59.50;95550.84;4160722;28;20133;-68
2023/10/03 01:18:01;;;;;;;14.18;8.85;;;;;;;15.24;59.64;95554.00;4154663;28;20041;-67
2023/10/03 01:20:16;;;;;;;14.75;8.70;;;;;;;15.23;59.30;95557.63;4160710;28;20065;-71
2023/10/03 01:22:18;;;;;;;14.05;9.02;;;;;;;15.23;59.22;95555.81;4158203;28;20416;-68
2023/10/03 01:24:20;;;;;;;12.98;8.35;;;;;;;15.23;59.32;95552.34;4165977;28;20044;-67
